createdAt,value
2023-03-05T00:00:50.890Z,90.44
2023-03-05T00:01:50.893Z,90.02
2023-03-05T00:02:50.907Z,88.78
2023-03-05T00:03:50.917Z,89.09
2023-03-05T00:04:50.867Z,89.29
2023-03-05T00:05:50.822Z,88.71
2023-03-05T00:06:50.821Z,88.92
2023-03-05T00:07:50.848Z,91.00
2023-03-05T00:08:50.793Z,90.58
2023-03-05T00:09:50.798Z,90.23
2023-03-05T00:10:50.805Z,90.33
2023-03-05T00:11:50.753Z,88.92
2023-03-05T00:12:50.753Z,89.65
2023-03-05T00:13:50.728Z,89.54
2023-03-05T00:14:50.730Z,90.27
2023-03-05T00:15:50.736Z,90.27
2023-03-05T00:16:50.798Z,91.20
2023-03-05T00:17:50.685Z,90.58
2023-03-05T00:18:50.692Z,91.20
2023-03-05T00:19:50.683Z,90.69
2023-03-05T00:20:50.682Z,90.89
2023-03-05T00:21:50.662Z,90.69
2023-03-05T00:22:50.654Z,90.58
2023-03-05T00:23:50.639Z,91.00
2023-03-05T00:24:50.630Z,90.58
2023-03-05T00:25:50.620Z,90.79
2023-03-05T00:26:50.620Z,91.00
2023-03-05T00:27:50.595Z,91.31
2023-03-05T00:28:50.581Z,91.83
2023-03-05T00:29:50.571Z,92.03
2023-03-05T00:30:50.671Z,91.10
2023-03-05T00:31:50.566Z,91.83
2023-03-05T00:32:50.557Z,91.20
2023-03-05T00:33:50.649Z,91.41
2023-03-05T00:34:50.558Z,91.00
2023-03-05T00:35:50.594Z,91.52
2023-03-05T00:36:50.521Z,91.00
2023-03-05T00:37:50.500Z,91.16
2023-03-05T00:38:50.493Z,91.06
2023-03-05T00:39:50.511Z,90.54
2023-03-05T00:40:50.469Z,91.27
2023-03-05T00:41:50.456Z,90.44
2023-03-05T00:42:50.451Z,90.69
2023-03-05T00:43:50.474Z,90.69
2023-03-05T00:44:50.436Z,91.20
2023-03-05T00:45:50.498Z,91.31
2023-03-05T00:46:50.468Z,91.58
2023-03-05T00:47:50.411Z,90.79
2023-03-05T00:48:50.416Z,91.47
2023-03-05T00:49:50.393Z,90.75
2023-03-05T00:50:50.374Z,90.95
2023-03-05T00:51:50.390Z,90.95
2023-03-05T00:52:50.348Z,91.16
2023-03-05T00:53:50.350Z,90.85
2023-03-05T00:54:50.321Z,90.75
2023-03-05T00:55:50.328Z,90.44
2023-03-05T00:56:50.315Z,90.44
2023-03-05T00:57:50.354Z,90.12
2023-03-05T00:58:50.279Z,90.12
2023-03-05T00:59:50.320Z,90.75
2023-03-05T01:00:50.273Z,91.06
2023-03-05T01:01:50.361Z,90.95
2023-03-05T01:02:50.233Z,91.16
2023-03-05T01:03:50.260Z,90.85
2023-03-05T01:04:50.287Z,90.54
2023-03-05T01:05:50.216Z,90.64
2023-03-05T01:06:50.264Z,90.85
2023-03-05T01:07:50.199Z,91.06
2023-03-05T01:08:50.174Z,90.44
2023-03-05T01:09:50.197Z,91.20
2023-03-05T01:10:50.144Z,91.27
2023-03-05T01:11:50.156Z,91.47
2023-03-05T01:12:50.153Z,90.85
2023-03-05T01:13:50.117Z,91.41
2023-03-05T01:14:50.105Z,91.72
2023-03-05T01:15:50.198Z,91.37
2023-03-05T01:16:50.077Z,91.58
2023-03-05T01:17:50.098Z,90.85
2023-03-05T01:18:50.154Z,91.27
2023-03-05T01:19:50.088Z,90.64
2023-03-05T01:20:50.057Z,91.00
2023-03-05T01:21:50.057Z,91.41
2023-03-05T01:22:50.027Z,91.27
2023-03-05T01:23:50.048Z,91.31
2023-03-05T01:24:50.039Z,91.68
2023-03-05T01:25:49.993Z,91.00
2023-03-05T01:26:49.982Z,91.52
2023-03-05T01:27:49.978Z,91.52
2023-03-05T01:28:49.967Z,91.62
2023-03-05T01:29:49.953Z,91.83
2023-03-05T01:30:49.971Z,91.83
2023-03-05T01:31:50.001Z,90.69
2023-03-05T01:32:49.930Z,91.62
2023-03-05T01:33:49.944Z,91.68
2023-03-05T01:34:49.919Z,90.89
2023-03-05T01:35:49.931Z,90.72
2023-03-05T01:36:49.887Z,92.07
2023-03-05T01:37:49.868Z,92.59
2023-03-05T01:38:49.843Z,92.76
2023-03-05T01:39:49.861Z,92.14
2023-03-05T01:40:49.851Z,91.72
2023-03-05T01:41:49.829Z,92.55
2023-03-05T01:42:49.806Z,91.89
2023-03-05T01:43:49.840Z,91.68
2023-03-05T01:44:49.795Z,90.85
2023-03-05T01:45:49.859Z,90.85
2023-03-05T01:46:49.782Z,90.95
2023-03-05T01:47:49.800Z,91.16
2023-03-05T01:48:49.817Z,91.52
2023-03-05T01:49:49.803Z,92.30
2023-03-05T01:50:49.749Z,91.27
2023-03-05T01:51:49.723Z,91.16
2023-03-05T01:52:49.789Z,90.33
2023-03-05T01:53:49.709Z,91.06
2023-03-05T01:54:49.692Z,90.95
2023-03-05T01:55:49.725Z,91.47
2023-03-05T01:56:49.677Z,91.37
2023-03-05T01:57:49.674Z,91.47
2023-03-05T01:58:49.652Z,91.52
2023-03-05T01:59:49.636Z,91.52
2023-03-05T02:00:49.676Z,91.41
2023-03-05T02:01:49.660Z,91.83
2023-03-05T02:02:49.668Z,91.83
2023-03-05T02:03:49.660Z,91.31
2023-03-05T02:04:49.615Z,91.20
2023-03-05T02:05:49.611Z,92.03
2023-03-05T02:06:49.564Z,91.72
2023-03-05T02:07:49.575Z,92.03
2023-03-05T02:08:49.564Z,92.45
2023-03-05T02:09:49.564Z,91.62
2023-03-05T02:10:49.521Z,91.41
2023-03-05T02:11:49.545Z,91.52
2023-03-05T02:12:49.618Z,91.62
2023-03-05T02:13:49.513Z,91.83
2023-03-05T02:14:49.485Z,92.24
2023-03-05T02:15:49.532Z,92.14
2023-03-05T02:16:49.490Z,91.72
2023-03-05T02:17:49.472Z,91.62
2023-03-05T02:18:49.495Z,92.03
2023-03-05T02:19:49.451Z,91.83
2023-03-05T02:20:49.435Z,92.14
2023-03-05T02:21:49.438Z,92.38
2023-03-05T02:22:49.429Z,92.66
2023-03-05T02:23:49.407Z,92.03
2023-03-05T02:24:49.392Z,91.72
2023-03-05T02:25:49.391Z,92.55
2023-03-05T02:26:49.406Z,91.83
2023-03-05T02:27:49.365Z,92.55
2023-03-05T02:28:49.356Z,92.76
2023-03-05T02:29:49.344Z,92.14
2023-03-05T02:30:49.372Z,91.83
2023-03-05T02:31:49.363Z,92.03
2023-03-05T02:32:49.309Z,91.31
2023-03-05T02:33:49.310Z,91.41
2023-03-05T02:34:49.297Z,91.83
2023-03-05T02:35:49.334Z,92.14
2023-03-05T02:36:49.257Z,92.03
2023-03-05T02:37:49.265Z,91.93
2023-03-05T02:38:49.269Z,91.72
2023-03-05T02:39:49.252Z,91.31
2023-03-05T02:40:49.225Z,92.03
2023-03-05T02:41:49.243Z,92.35
2023-03-05T02:42:49.202Z,91.76
2023-03-05T02:43:49.229Z,92.55
2023-03-05T02:44:49.189Z,92.66
2023-03-05T02:45:49.268Z,92.86
2023-03-05T02:46:49.191Z,92.24
2023-03-05T02:47:49.174Z,92.24
2023-03-05T02:48:49.151Z,91.93
2023-03-05T02:49:49.174Z,92.24
2023-03-05T02:50:49.142Z,91.62
2023-03-05T02:51:49.129Z,91.72
2023-03-05T02:52:49.134Z,91.52
2023-03-05T02:53:49.122Z,91.41
2023-03-05T02:54:49.077Z,91.20
2023-03-05T02:55:49.122Z,91.97
2023-03-05T02:56:49.077Z,91.86
2023-03-05T02:57:49.066Z,93.01
2023-03-05T02:58:49.045Z,93.18
2023-03-05T02:59:49.062Z,92.24
2023-03-05T03:00:49.068Z,92.24
2023-03-05T03:01:49.091Z,92.55
2023-03-05T03:02:49.080Z,92.55
2023-03-05T03:03:49.020Z,92.55
2023-03-05T03:04:49.018Z,91.93
2023-03-05T03:05:48.985Z,92.24
2023-03-05T03:06:48.995Z,92.35
2023-03-05T03:07:48.977Z,92.55
2023-03-05T03:08:48.947Z,92.41
2023-03-05T03:09:48.941Z,91.58
2023-03-05T03:10:48.915Z,91.47
2023-03-05T03:11:48.936Z,91.37
2023-03-05T03:12:48.898Z,91.58
2023-03-05T03:13:48.933Z,91.37
2023-03-05T03:14:48.888Z,90.64
2023-03-05T03:15:48.879Z,91.27
2023-03-05T03:16:48.939Z,91.58
2023-03-05T03:17:48.876Z,90.48
2023-03-05T03:18:49.074Z,91.72
2023-03-05T03:19:48.861Z,91.83
2023-03-05T03:20:48.841Z,91.83
2023-03-05T03:21:48.841Z,91.93
2023-03-05T03:22:48.808Z,92.03
2023-03-05T03:23:48.875Z,91.83
2023-03-05T03:24:48.777Z,91.62
2023-03-05T03:25:48.794Z,91.20
2023-03-05T03:26:48.779Z,91.31
2023-03-05T03:27:48.761Z,91.41
2023-03-05T03:28:48.772Z,92.14
2023-03-05T03:29:48.768Z,92.35
2023-03-05T03:30:48.743Z,92.35
2023-03-05T03:31:58.262Z,92.03
2023-03-05T03:32:48.692Z,92.35
2023-03-05T03:33:49.340Z,91.52
2023-03-05T03:34:49.293Z,92.03
2023-03-05T03:35:48.723Z,91.93
2023-03-05T03:36:48.663Z,92.14
2023-03-05T03:37:48.671Z,92.14
2023-03-05T03:38:48.672Z,91.78
2023-03-05T03:39:48.662Z,91.58
2023-03-05T03:40:48.623Z,91.20
2023-03-05T03:41:48.682Z,91.31
2023-03-05T03:42:48.643Z,91.52
2023-03-05T03:43:48.608Z,91.62
2023-03-05T03:44:48.583Z,92.35
2023-03-05T03:45:48.623Z,91.83
2023-03-05T03:46:48.576Z,91.62
2023-03-05T03:47:48.621Z,92.35
2023-03-05T03:48:48.552Z,92.14
2023-03-05T03:49:48.599Z,92.55
2023-03-05T03:50:48.524Z,92.14
2023-03-05T03:51:48.536Z,91.83
2023-03-05T03:52:48.514Z,92.03
2023-03-05T03:53:48.512Z,92.14
2023-03-05T03:54:48.514Z,91.83
2023-03-05T03:55:48.530Z,92.24
2023-03-05T03:56:48.481Z,91.62
2023-03-05T03:57:48.473Z,91.52
2023-03-05T03:58:48.453Z,91.62
2023-03-05T03:59:48.468Z,91.55
2023-03-05T04:00:48.443Z,92.07
2023-03-05T04:01:48.436Z,92.80
2023-03-05T04:02:48.452Z,92.59
2023-03-05T04:03:48.414Z,93.32
2023-03-05T04:04:48.425Z,92.90
2023-03-05T04:05:48.383Z,92.22
2023-03-05T04:06:48.392Z,93.05
2023-03-05T04:07:48.389Z,93.68
2023-03-05T04:08:48.352Z,93.57
2023-03-05T04:09:48.365Z,93.37
2023-03-05T04:10:48.354Z,93.41
2023-03-05T04:11:48.326Z,94.45
2023-03-05T04:12:48.341Z,95.03
2023-03-05T04:13:48.324Z,94.51
2023-03-05T04:14:48.326Z,93.26
2023-03-05T04:15:48.334Z,93.47
2023-03-05T04:16:48.274Z,92.32
2023-03-05T04:17:48.299Z,92.99
2023-03-05T04:18:48.267Z,93.62
2023-03-05T04:19:48.245Z,94.24
2023-03-05T04:20:48.230Z,94.76
2023-03-05T04:21:48.236Z,94.34
2023-03-05T04:22:48.211Z,95.07
2023-03-05T04:23:48.223Z,94.65
2023-03-05T04:24:48.192Z,94.34
2023-03-05T04:25:48.245Z,94.24
2023-03-05T04:26:48.184Z,94.65
2023-03-05T04:27:48.195Z,94.55
2023-03-05T04:28:48.177Z,94.20
2023-03-05T04:29:48.173Z,94.20
2023-03-05T04:30:48.206Z,94.20
2023-03-05T04:31:48.136Z,93.47
2023-03-05T04:32:48.094Z,93.78
2023-03-05T04:33:48.131Z,92.94
2023-03-05T04:34:48.079Z,93.16
2023-03-05T04:35:48.167Z,93.74
2023-03-05T04:36:48.078Z,92.90
2023-03-05T04:37:48.057Z,92.59
2023-03-05T04:38:48.081Z,92.59
2023-03-05T04:39:48.054Z,92.59
2023-03-05T04:40:48.066Z,92.80
2023-03-05T04:41:48.048Z,92.28
2023-03-05T04:42:48.008Z,91.39
2023-03-05T04:43:48.000Z,93.16
2023-03-05T04:44:48.006Z,93.26
2023-03-05T04:45:47.980Z,93.78
2023-03-05T04:46:48.033Z,93.63
2023-03-05T04:47:47.958Z,93.53
2023-03-05T04:48:47.975Z,93.12
2023-03-05T04:49:47.931Z,92.18
2023-03-05T04:50:47.932Z,92.18
2023-03-05T04:51:47.946Z,93.63
2023-03-05T04:52:47.901Z,92.59
2023-03-05T04:53:47.900Z,92.28
2023-03-05T04:54:47.887Z,92.01
2023-03-05T04:55:47.920Z,93.05
2023-03-05T04:56:47.864Z,93.47
2023-03-05T04:57:47.870Z,94.20
2023-03-05T04:58:47.835Z,93.37
2023-03-05T04:59:47.819Z,93.88
2023-03-05T05:00:47.865Z,93.57
2023-03-05T05:01:47.842Z,93.99
2023-03-05T05:02:47.903Z,93.37
2023-03-05T05:03:47.821Z,93.47
2023-03-05T05:04:47.824Z,93.37
2023-03-05T05:05:47.779Z,93.53
2023-03-05T05:06:47.779Z,93.53
2023-03-05T05:07:47.745Z,92.38
2023-03-05T05:08:47.766Z,92.18
2023-03-05T05:09:47.724Z,92.18
2023-03-05T05:10:47.724Z,91.76
2023-03-05T05:11:47.724Z,92.38
2023-03-05T05:12:47.704Z,93.12
2023-03-05T05:13:47.701Z,93.22
2023-03-05T05:14:47.688Z,92.38
2023-03-05T05:15:47.680Z,93.22
2023-03-05T05:16:47.677Z,92.69
2023-03-05T05:17:47.696Z,93.12
2023-03-05T05:18:47.665Z,92.22
2023-03-05T05:19:47.629Z,92.63
2023-03-05T05:20:47.629Z,93.78
2023-03-05T05:21:47.609Z,93.63
2023-03-05T05:22:47.609Z,93.32
2023-03-05T05:23:47.620Z,92.49
2023-03-05T05:24:47.618Z,92.69
2023-03-05T05:25:47.561Z,93.12
2023-03-05T05:26:47.571Z,92.90
2023-03-05T05:27:47.570Z,92.90
2023-03-05T05:28:47.572Z,92.69
2023-03-05T05:29:47.533Z,92.49
2023-03-05T05:30:47.509Z,92.07
2023-03-05T05:31:47.524Z,91.97
2023-03-05T05:32:47.498Z,92.49
2023-03-05T05:33:49.685Z,92.49
2023-03-05T05:34:47.511Z,92.38
2023-03-05T05:35:47.484Z,93.12
2023-03-05T05:36:47.459Z,92.59
2023-03-05T05:37:47.472Z,92.38
2023-03-05T05:38:47.465Z,92.90
2023-03-05T05:39:47.422Z,92.18
2023-03-05T05:40:47.487Z,93.01
2023-03-05T05:41:47.404Z,92.90
2023-03-05T05:42:47.405Z,92.45
2023-03-05T05:43:47.382Z,91.83
2023-03-05T05:44:47.379Z,91.03
2023-03-05T05:45:47.553Z,92.18
2023-03-05T05:46:47.405Z,92.53
2023-03-05T05:47:47.370Z,92.84
2023-03-05T05:48:47.330Z,93.16
2023-03-05T05:49:47.286Z,93.84
2023-03-05T05:50:47.370Z,93.12
2023-03-05T05:51:47.264Z,92.59
2023-03-05T05:52:47.261Z,92.38
2023-03-05T05:53:47.330Z,92.69
2023-03-05T05:54:47.231Z,93.01
2023-03-05T05:55:47.238Z,92.90
2023-03-05T05:56:47.309Z,92.69
2023-03-05T05:57:47.195Z,92.28
2023-03-05T05:58:47.223Z,92.07
2023-03-05T05:59:47.197Z,92.49
2023-03-05T06:00:47.167Z,92.49
2023-03-05T06:01:47.204Z,92.43
2023-03-05T06:02:47.289Z,91.91
2023-03-05T06:03:47.145Z,92.84
2023-03-05T06:04:47.138Z,92.84
2023-03-05T06:05:47.160Z,93.30
2023-03-05T06:06:47.147Z,93.51
2023-03-05T06:07:47.101Z,93.93
2023-03-05T06:08:47.130Z,93.93
2023-03-05T06:09:47.067Z,94.40
2023-03-05T06:10:47.101Z,93.99
2023-03-05T06:11:47.053Z,94.20
2023-03-05T06:12:47.052Z,93.68
2023-03-05T06:13:47.066Z,93.78
2023-03-05T06:14:47.017Z,93.57
2023-03-05T06:15:47.000Z,93.88
2023-03-05T06:16:47.084Z,93.78
2023-03-05T06:17:47.012Z,93.53
2023-03-05T06:18:46.990Z,93.12
2023-03-05T06:19:46.958Z,93.22
2023-03-05T06:20:46.963Z,93.22
2023-03-05T06:21:46.954Z,92.80
2023-03-05T06:22:46.983Z,92.80
2023-03-05T06:23:46.942Z,92.97
2023-03-05T06:24:46.922Z,91.97
2023-03-05T06:25:46.905Z,91.66
2023-03-05T06:26:46.906Z,92.07
2023-03-05T06:27:46.914Z,92.90
2023-03-05T06:28:46.911Z,93.12
2023-03-05T06:29:46.880Z,93.01
2023-03-05T06:30:46.893Z,93.05
2023-03-05T06:31:46.853Z,93.68
2023-03-05T06:32:46.859Z,93.78
2023-03-05T06:33:46.838Z,94.20
2023-03-05T06:34:46.828Z,94.40
2023-03-05T06:35:46.878Z,94.82
2023-03-05T06:36:46.813Z,94.57
2023-03-05T06:37:46.792Z,94.36
2023-03-05T06:38:48.461Z,94.36
2023-03-05T06:39:46.774Z,93.68
2023-03-05T06:40:46.766Z,94.09
2023-03-05T06:41:46.742Z,94.92
2023-03-05T06:42:46.841Z,94.92
2023-03-05T06:43:46.748Z,95.03
2023-03-05T06:44:48.238Z,94.92
2023-03-05T06:45:46.763Z,94.82
2023-03-05T06:46:46.692Z,95.03
2023-03-05T06:47:46.702Z,95.44
2023-03-05T06:48:46.693Z,94.71
2023-03-05T06:49:46.663Z,95.03
2023-03-05T06:50:46.662Z,95.19
2023-03-05T06:51:46.640Z,95.09
2023-03-05T06:52:46.635Z,94.46
2023-03-05T06:53:49.041Z,93.84
2023-03-05T06:54:46.619Z,94.26
2023-03-05T06:55:46.591Z,94.67
2023-03-05T06:56:46.642Z,94.26
2023-03-05T06:57:46.584Z,93.95
2023-03-05T06:58:46.569Z,93.84
2023-03-05T06:59:46.602Z,93.90
2023-03-05T07:00:46.608Z,93.38
2023-03-05T07:01:46.547Z,93.18
2023-03-05T07:02:46.574Z,93.28
2023-03-05T07:03:46.552Z,92.72
2023-03-05T07:04:46.522Z,92.20
2023-03-05T07:05:46.512Z,92.14
2023-03-05T07:06:46.515Z,92.66
2023-03-05T07:07:46.468Z,93.18
2023-03-05T07:08:46.492Z,92.76
2023-03-05T07:09:46.445Z,93.07
2023-03-05T07:10:46.456Z,93.28
2023-03-05T07:11:46.425Z,92.97
2023-03-05T07:12:46.436Z,93.28
2023-03-05T07:13:46.436Z,93.28
2023-03-05T07:14:46.414Z,92.86
2023-03-05T07:15:46.421Z,92.97
2023-03-05T07:16:46.421Z,92.66
2023-03-05T07:17:46.375Z,92.97
2023-03-05T07:18:46.383Z,92.59
2023-03-05T07:19:46.356Z,93.38
2023-03-05T07:20:46.342Z,93.18
2023-03-05T07:21:46.337Z,93.32
2023-03-05T07:22:46.356Z,93.80
2023-03-05T07:23:46.310Z,93.59
2023-03-05T07:24:46.328Z,93.18
2023-03-05T07:25:46.337Z,92.55
2023-03-05T07:26:47.995Z,92.97
2023-03-05T07:27:46.274Z,92.49
2023-03-05T07:28:46.273Z,93.22
2023-03-05T07:29:46.257Z,93.53
2023-03-05T07:30:46.272Z,93.84
2023-03-05T07:31:46.221Z,93.63
2023-03-05T07:32:46.261Z,94.51
2023-03-05T07:33:46.206Z,94.92
2023-03-05T07:34:46.226Z,95.23
2023-03-05T07:35:46.244Z,95.50
2023-03-05T07:36:46.183Z,95.50
2023-03-05T07:37:46.174Z,94.57
2023-03-05T07:38:46.184Z,94.05
2023-03-05T07:39:47.282Z,94.36
2023-03-05T07:40:46.152Z,94.46
2023-03-05T07:41:46.145Z,94.51
2023-03-05T07:42:46.133Z,95.13
2023-03-05T07:43:46.138Z,95.03
2023-03-05T07:44:46.102Z,95.65
2023-03-05T07:45:46.213Z,95.81
2023-03-05T07:46:46.080Z,95.40
2023-03-05T07:47:46.068Z,94.46
2023-03-05T07:48:46.073Z,94.30
2023-03-05T07:49:46.069Z,94.51
2023-03-05T07:50:46.053Z,95.23
2023-03-05T07:51:46.026Z,95.29
2023-03-05T07:52:46.030Z,94.78
2023-03-05T07:53:46.066Z,94.15
2023-03-05T07:54:46.005Z,94.46
2023-03-05T07:55:45.992Z,93.53
2023-03-05T07:56:45.989Z,93.32
2023-03-05T07:57:45.983Z,93.63
2023-03-05T07:58:45.973Z,93.74
2023-03-05T07:59:45.949Z,93.95
2023-03-05T08:00:45.968Z,94.20
2023-03-05T08:01:45.945Z,94.36
2023-03-05T08:02:45.970Z,94.26
2023-03-05T08:03:45.938Z,94.57
2023-03-05T08:04:45.929Z,94.67
2023-03-05T08:05:45.885Z,94.63
2023-03-05T08:06:45.899Z,94.32
2023-03-05T08:07:45.862Z,94.11
2023-03-05T08:08:45.857Z,93.70
2023-03-05T08:09:45.849Z,92.86
2023-03-05T08:10:45.861Z,93.18
2023-03-05T08:11:45.839Z,93.38
2023-03-05T08:12:45.841Z,92.61
2023-03-05T08:13:45.817Z,92.51
2023-03-05T08:14:45.780Z,92.61
2023-03-05T08:15:45.825Z,91.93
2023-03-05T08:16:48.148Z,92.51
2023-03-05T08:17:45.750Z,92.51
2023-03-05T08:18:45.759Z,92.61
2023-03-05T08:19:45.747Z,92.51
2023-03-05T08:20:45.733Z,92.05
2023-03-05T08:21:45.720Z,91.74
2023-03-05T08:22:45.713Z,91.43
2023-03-05T08:23:45.722Z,91.12
2023-03-05T08:24:45.724Z,91.12
2023-03-05T08:25:45.694Z,91.18
2023-03-05T08:26:45.675Z,90.97
2023-03-05T08:27:45.668Z,91.02
2023-03-05T08:28:45.661Z,91.53
2023-03-05T08:29:45.663Z,91.18
2023-03-05T08:30:45.629Z,90.66
2023-03-05T08:31:45.610Z,90.97
2023-03-05T08:32:45.627Z,90.87
2023-03-05T08:33:45.621Z,91.12
2023-03-05T08:34:45.600Z,91.39
2023-03-05T08:35:45.619Z,90.56
2023-03-05T08:36:45.590Z,90.87
2023-03-05T08:37:45.580Z,90.77
2023-03-05T08:38:45.561Z,90.50
2023-03-05T08:39:45.540Z,90.60
2023-03-05T08:40:45.550Z,90.81
2023-03-05T08:41:45.510Z,91.58
2023-03-05T08:42:45.506Z,91.78
2023-03-05T08:43:45.497Z,91.41
2023-03-05T08:44:45.536Z,92.66
2023-03-05T08:45:45.489Z,93.28
2023-03-05T08:46:45.564Z,93.70
2023-03-05T08:47:45.461Z,93.59
2023-03-05T08:48:45.460Z,93.70
2023-03-05T08:49:45.516Z,93.33
2023-03-05T08:50:45.443Z,92.10
2023-03-05T08:51:45.434Z,92.03
2023-03-05T08:52:45.429Z,92.66
2023-03-05T08:53:45.394Z,92.86
2023-03-05T08:54:45.390Z,93.38
2023-03-05T08:55:45.362Z,93.70
2023-03-05T08:56:45.374Z,93.49
2023-03-05T08:57:45.376Z,93.59
2023-03-05T08:58:45.364Z,93.28
2023-03-05T08:59:45.356Z,93.07
2023-03-05T09:00:45.327Z,93.18
2023-03-05T09:01:45.400Z,93.18
2023-03-05T09:02:45.359Z,93.38
2023-03-05T09:03:45.294Z,93.33
2023-03-05T09:04:45.296Z,92.72
2023-03-05T09:05:45.274Z,92.82
2023-03-05T09:06:45.284Z,92.51
2023-03-05T09:07:45.278Z,92.72
2023-03-05T09:08:45.248Z,92.41
2023-03-05T09:09:45.230Z,92.47
2023-03-05T09:10:45.252Z,92.36
2023-03-05T09:11:45.208Z,91.33
2023-03-05T09:12:45.279Z,91.22
2023-03-05T09:13:45.188Z,91.33
2023-03-05T09:14:45.204Z,91.12
2023-03-05T09:15:45.216Z,91.53
2023-03-05T09:16:45.194Z,91.43
2023-03-05T09:17:45.159Z,91.12
2023-03-05T09:18:45.217Z,90.87
2023-03-05T09:19:45.138Z,90.97
2023-03-05T09:20:45.124Z,90.77
2023-03-05T09:21:45.134Z,89.83
2023-03-05T09:22:45.104Z,89.94
2023-03-05T09:23:45.100Z,89.42
2023-03-05T09:24:45.081Z,89.73
2023-03-05T09:25:45.073Z,89.38
2023-03-05T09:26:45.071Z,88.96
2023-03-05T09:27:45.082Z,89.28
2023-03-05T09:28:45.050Z,88.96
2023-03-05T09:29:45.034Z,89.38
2023-03-05T09:30:45.005Z,88.45
2023-03-05T09:31:45.057Z,89.07
2023-03-05T09:32:45.053Z,88.86
2023-03-05T09:33:45.008Z,88.34
2023-03-05T09:34:44.985Z,88.79
2023-03-05T09:35:45.018Z,89.00
2023-03-05T09:36:44.973Z,89.42
2023-03-05T09:37:44.984Z,89.28
2023-03-05T09:38:44.941Z,89.38
2023-03-05T09:39:44.941Z,88.20
2023-03-05T09:40:44.942Z,87.72
2023-03-05T09:41:44.945Z,87.82
2023-03-05T09:42:44.894Z,87.88
2023-03-05T09:43:44.921Z,87.99
2023-03-05T09:44:44.886Z,88.03
2023-03-05T09:45:44.936Z,88.20
2023-03-05T09:46:44.913Z,88.40
2023-03-05T09:47:44.864Z,88.20
2023-03-05T09:48:44.850Z,88.03
2023-03-05T09:49:44.832Z,86.99
2023-03-05T09:50:44.830Z,88.55
2023-03-05T09:51:44.838Z,88.45
2023-03-05T09:52:44.802Z,88.45
2023-03-05T09:53:44.816Z,88.65
2023-03-05T09:54:44.821Z,88.34
2023-03-05T09:55:44.784Z,88.03
2023-03-05T09:56:44.853Z,88.34
2023-03-05T09:57:44.748Z,88.13
2023-03-05T09:58:44.743Z,88.96
2023-03-05T09:59:44.785Z,88.65
2023-03-05T10:00:44.759Z,88.55
2023-03-05T10:01:44.877Z,88.09
2023-03-05T10:02:44.727Z,87.78
2023-03-05T10:03:44.746Z,87.57
2023-03-05T10:04:44.682Z,86.71
2023-03-05T10:05:44.665Z,86.60
2023-03-05T10:06:44.675Z,87.02
2023-03-05T10:07:44.678Z,86.91
2023-03-05T10:08:44.658Z,86.44
2023-03-05T10:09:44.626Z,86.27
2023-03-05T10:10:44.629Z,85.77
2023-03-05T10:11:44.650Z,88.75
2023-03-05T10:12:44.611Z,89.36
2023-03-05T10:13:44.590Z,90.54
2023-03-05T10:14:44.617Z,91.72
2023-03-05T10:15:44.626Z,93.12
2023-03-05T10:16:44.695Z,94.16
2023-03-05T10:17:44.648Z,93.33
2023-03-05T10:18:44.544Z,93.27
2023-03-05T10:19:44.551Z,93.48
2023-03-05T10:20:44.596Z,93.83
2023-03-05T10:21:44.590Z,94.56
2023-03-05T10:22:44.509Z,94.56
2023-03-05T10:23:44.495Z,94.45
2023-03-05T10:24:44.570Z,94.98
2023-03-05T10:25:44.483Z,95.60
2023-03-05T10:26:44.489Z,95.81
2023-03-05T10:27:44.536Z,95.70
2023-03-05T10:28:44.464Z,95.91
2023-03-05T10:29:44.440Z,96.12
2023-03-05T10:30:44.475Z,96.85
2023-03-05T10:31:44.502Z,96.49
2023-03-05T10:32:44.466Z,96.49
2023-03-05T10:33:44.416Z,95.45
2023-03-05T10:34:44.469Z,95.56
2023-03-05T10:35:44.407Z,94.93
2023-03-05T10:36:44.362Z,95.51
2023-03-05T10:37:44.375Z,95.72
2023-03-05T10:38:44.364Z,94.53
2023-03-05T10:39:44.355Z,93.70
2023-03-05T10:40:44.340Z,94.12
2023-03-05T10:41:44.301Z,94.84
2023-03-05T10:42:44.303Z,94.90
2023-03-05T10:43:44.319Z,93.14
2023-03-05T10:44:44.281Z,93.03
2023-03-05T10:45:44.335Z,93.55
2023-03-05T10:46:44.274Z,95.07
2023-03-05T10:47:44.334Z,94.61
2023-03-05T10:48:44.241Z,92.74
2023-03-05T10:49:44.228Z,93.68
2023-03-05T10:50:44.256Z,93.74
2023-03-05T10:51:44.217Z,92.28
2023-03-05T10:52:44.216Z,92.55
2023-03-05T10:53:44.264Z,92.35
2023-03-05T10:54:44.166Z,92.20
2023-03-05T10:55:44.188Z,92.10
2023-03-05T10:56:44.190Z,91.99
2023-03-05T10:57:44.156Z,92.16
2023-03-05T10:58:44.137Z,92.36
2023-03-05T10:59:44.201Z,92.63
2023-03-05T11:00:44.109Z,90.87
2023-03-05T11:01:44.155Z,89.73
2023-03-05T11:02:44.144Z,90.77
2023-03-05T11:03:44.116Z,91.35
2023-03-05T11:04:44.079Z,90.72
2023-03-05T11:05:44.070Z,88.40
2023-03-05T11:06:44.102Z,88.82
2023-03-05T11:07:44.090Z,84.27
2023-03-05T11:08:44.032Z,83.12
2023-03-05T11:09:44.069Z,85.71
2023-03-05T11:10:44.008Z,85.36
2023-03-05T11:11:44.026Z,79.77
2023-03-05T11:12:44.011Z,79.60
2023-03-05T11:13:43.996Z,79.13
2023-03-05T11:14:43.992Z,80.99
2023-03-05T11:15:44.001Z,82.60
2023-03-05T11:16:43.942Z,81.68
2023-03-05T11:17:43.957Z,79.85
2023-03-05T11:18:43.923Z,79.02
2023-03-05T11:19:43.940Z,79.54
2023-03-05T11:20:43.900Z,83.44
2023-03-05T11:21:43.934Z,81.99
2023-03-05T11:22:43.949Z,83.54
2023-03-05T11:23:43.880Z,82.46
2023-03-05T11:24:43.861Z,76.98
2023-03-05T11:25:43.876Z,79.47
2023-03-05T11:26:43.882Z,81.29
2023-03-05T11:27:43.880Z,80.98
2023-03-05T11:28:43.863Z,80.05
2023-03-05T11:29:43.831Z,79.80
2023-03-05T11:30:43.809Z,79.49
2023-03-05T11:31:43.800Z,81.67
2023-03-05T11:32:43.825Z,78.25
2023-03-05T11:33:43.772Z,77.39
2023-03-05T11:34:43.761Z,72.67
2023-03-05T11:35:43.868Z,76.18
2023-03-05T11:36:43.745Z,73.60
2023-03-05T11:37:43.743Z,74.53
2023-03-05T11:38:43.797Z,79.05
2023-03-05T11:39:43.720Z,79.36
2023-03-05T11:40:43.692Z,79.11
2023-03-05T11:41:43.722Z,76.01
2023-03-05T11:42:43.708Z,76.12
2023-03-05T11:43:43.683Z,75.81
2023-03-05T11:44:43.651Z,76.22
2023-03-05T11:45:43.680Z,75.09
2023-03-05T11:46:43.663Z,71.88
2023-03-05T11:47:43.652Z,70.88
2023-03-05T11:48:43.659Z,68.12
2023-03-05T11:49:43.646Z,68.85
2023-03-05T11:50:43.604Z,68.77
2023-03-05T11:51:43.597Z,73.39
2023-03-05T11:52:43.568Z,70.81
2023-03-05T11:53:43.602Z,71.64
2023-03-05T11:54:43.570Z,72.05
2023-03-05T11:55:43.566Z,77.39
2023-03-05T11:56:43.546Z,72.02
2023-03-05T11:57:43.538Z,71.06
2023-03-05T11:58:43.523Z,73.12
2023-03-05T11:59:43.536Z,74.67
2023-03-05T12:00:43.520Z,75.91
2023-03-05T12:01:43.500Z,73.12
2023-03-05T12:02:43.563Z,73.85
2023-03-05T12:03:43.585Z,74.26
2023-03-05T12:04:43.456Z,74.77
2023-03-05T12:05:43.523Z,73.95
2023-03-05T12:06:43.434Z,72.50
2023-03-05T12:07:43.433Z,70.67
2023-03-05T12:08:43.454Z,74.26
2023-03-05T12:09:43.459Z,70.43
2023-03-05T12:10:43.401Z,71.06
2023-03-05T12:11:43.437Z,72.81
2023-03-05T12:12:43.400Z,73.12
2023-03-05T12:13:43.381Z,69.20
2023-03-05T12:14:43.391Z,67.24
2023-03-05T12:15:43.577Z,65.89
2023-03-05T12:16:43.854Z,68.68
2023-03-05T12:17:43.386Z,67.16
2023-03-05T12:18:43.338Z,66.26
2023-03-05T12:19:43.326Z,66.50
2023-03-05T12:20:43.363Z,68.46
2023-03-05T12:21:43.391Z,69.09
2023-03-05T12:22:43.380Z,71.26
2023-03-05T12:23:43.296Z,71.22
2023-03-05T12:24:43.250Z,70.92
2023-03-05T12:25:43.258Z,69.98
2023-03-05T12:26:43.254Z,72.05
2023-03-05T12:27:43.648Z,73.88
2023-03-05T12:28:43.219Z,73.26
2023-03-05T12:29:43.244Z,74.05
2023-03-05T12:30:43.646Z,69.02
2023-03-05T12:31:43.312Z,71.26
2023-03-05T12:32:43.333Z,70.54
2023-03-05T12:33:43.180Z,71.67
2023-03-05T12:34:43.171Z,69.61
2023-03-05T12:35:43.235Z,68.99
2023-03-05T12:36:43.662Z,72.71
2023-03-05T12:37:43.138Z,73.19
2023-03-05T12:38:43.118Z,69.17
2023-03-05T12:39:43.843Z,72.16
2023-03-05T12:40:43.101Z,72.26
2023-03-05T12:41:43.096Z,68.65
2023-03-05T12:42:43.136Z,72.23
2023-03-05T12:43:43.082Z,70.78
2023-03-05T12:44:43.062Z,70.78
2023-03-05T12:45:43.076Z,71.20
2023-03-05T12:46:43.105Z,69.96
2023-03-05T12:47:43.058Z,68.72
2023-03-05T12:48:43.072Z,68.65
2023-03-05T12:49:43.021Z,69.85
2023-03-05T12:50:43.034Z,70.09
2023-03-05T12:51:43.003Z,70.17
2023-03-05T12:52:42.996Z,71.61